Terminal Aerodrome Forecast
Issued by NWS Charleston, WV

Current Version | Previous Version | Graphics & Text | Print | Product List | Glossary On
Versions: 1 2 3 4 5 6 7 8 9 10 11 12 13 14 15 16 17 18 19 20 21 22 23 24
000
FTUS41 KRLX 260858 AAA
TAFPKB
TAF AMD
KPKB 260858Z 2609/2706 VRB03KT P6SM SCT040
     FM261000 00000KT 4SM BR FEW050
     FM261200 00000KT P6SM SCT025
     FM261700 29006KT P6SM SCT040
     FM270200 VRB03KT P6SM SKC=

USA.gov is the U.S. government's official web portal to all federal, state and local government web resources and services.